Terminal Aerodrome Forecast
Issued by NWS

Home | Current Version | Previous Version | Text Only | Print | Product List | Glossary On
Versions: 1 2 3 4 5 6 7 8 9 10 11 12 13 14 15 16 17 18 19 20 21 22 23 24 25 26 27 28 29
000
FTUS41 KBUF 021100
TAFIAG
TAF
KIAG 021134Z 0212/0312 24009KT P6SM FEW009 SCT060 BKN250
     FM021400 23011KT P6SM SCT060
     FM021700 26013KT P6SM VCTS BKN050CB
     FM022200 23010KT P6SM VCSH BKN080
     FM030000 23009KT P6SM BKN200=

USA.gov is the U.S. government's official web portal to all federal, state and local government web resources and services.